createdAt,value
2022-11-07T00:02:05.764Z,6.95
2022-11-07T00:06:59.680Z,6.00
2022-11-07T00:11:53.249Z,5.80
2022-11-07T00:16:48.932Z,6.28
2022-11-07T00:21:41.899Z,6.10
2022-11-07T00:26:35.100Z,5.85
2022-11-07T00:31:30.463Z,5.60
2022-11-07T00:36:26.763Z,6.35
2022-11-07T00:41:20.830Z,5.95
2022-11-07T00:46:16.298Z,5.75
2022-11-07T00:51:12.255Z,6.32
2022-11-07T00:56:08.094Z,6.38
2022-11-07T01:01:08.289Z,5.85
2022-11-07T01:06:03.297Z,6.90
2022-11-07T01:10:56.825Z,5.57
2022-11-07T01:15:50.912Z,5.40
2022-11-07T01:20:44.100Z,5.50
2022-11-07T01:25:39.168Z,6.25
2022-11-07T01:30:32.226Z,5.47
2022-11-07T01:35:25.629Z,5.13
2022-11-07T01:40:20.126Z,5.72
2022-11-07T01:45:21.290Z,5.13
2022-11-07T01:50:15.267Z,5.65
2022-11-07T01:55:24.478Z,4.53
2022-11-07T02:00:19.846Z,5.70
2022-11-07T02:05:33.777Z,5.30
2022-11-07T02:10:28.096Z,5.30
2022-11-07T02:15:21.713Z,5.65
2022-11-07T02:20:15.648Z,5.95
2022-11-07T02:25:16.292Z,4.97
2022-11-07T02:30:16.205Z,5.40
2022-11-07T02:35:47.354Z,5.88
2022-11-07T02:40:41.540Z,5.07
2022-11-07T02:45:36.235Z,4.40
2022-11-07T02:50:29.064Z,5.20
2022-11-07T02:55:22.417Z,4.07
2022-11-07T03:00:16.220Z,4.60
2022-11-07T03:05:10.302Z,4.85
2022-11-07T03:10:03.306Z,4.45
2022-11-07T03:14:56.941Z,3.50
2022-11-07T03:19:50.999Z,3.63
2022-11-07T03:24:44.119Z,3.88
2022-11-07T03:29:37.722Z,3.95
2022-11-07T03:34:32.035Z,3.92
2022-11-07T03:39:26.066Z,3.95
2022-11-07T03:44:20.671Z,3.92
2022-11-07T03:49:14.335Z,4.38
2022-11-07T03:54:08.278Z,4.82
2022-11-07T03:59:00.991Z,4.50
2022-11-07T04:03:56.393Z,4.55
2022-11-07T04:08:50.139Z,4.20
2022-11-07T04:14:02.152Z,3.88
2022-11-07T04:18:56.117Z,4.32
2022-11-07T04:23:48.939Z,3.83
2022-11-07T04:28:42.719Z,3.15
2022-11-07T04:33:35.741Z,3.17
2022-11-07T04:38:29.291Z,3.22
2022-11-07T04:43:23.594Z,2.90
2022-11-07T04:48:16.915Z,3.00
2022-11-07T04:53:13.494Z,3.60
2022-11-07T04:58:07.615Z,3.28
2022-11-07T05:03:02.628Z,3.17
2022-11-07T05:07:56.991Z,3.25
2022-11-07T05:12:50.396Z,3.17
2022-11-07T05:17:44.159Z,2.97
2022-11-07T05:22:56.503Z,4.05
2022-11-07T05:27:50.604Z,3.38
2022-11-07T05:32:44.897Z,2.80
2022-11-07T05:37:38.305Z,2.70
2022-11-07T05:42:32.802Z,3.03
2022-11-07T05:47:26.691Z,3.03
2022-11-07T05:52:20.191Z,3.20
2022-11-07T05:57:13.158Z,3.10
2022-11-07T06:02:06.734Z,3.55
2022-11-07T06:07:00.925Z,2.85
2022-11-07T06:11:54.233Z,3.85
2022-11-07T06:16:48.735Z,2.75
2022-11-07T06:21:43.296Z,4.43
2022-11-07T06:26:37.358Z,3.17
2022-11-07T06:31:30.816Z,3.88
2022-11-07T06:36:24.349Z,3.25
2022-11-07T06:41:17.818Z,3.72
2022-11-07T06:46:13.630Z,3.58
2022-11-07T06:51:07.725Z,3.85
2022-11-07T06:56:02.529Z,3.13
2022-11-07T07:00:59.862Z,3.38
2022-11-07T07:05:53.766Z,4.65
2022-11-07T07:10:47.843Z,4.07
2022-11-07T07:15:50.923Z,5.60
2022-11-07T07:20:45.886Z,5.88
2022-11-07T07:25:39.809Z,6.43
2022-11-07T07:30:32.690Z,5.68
2022-11-07T07:35:26.448Z,5.97
2022-11-07T07:40:21.050Z,6.43
2022-11-07T07:45:16.207Z,5.30
2022-11-07T07:50:12.156Z,7.88
2022-11-07T07:55:09.612Z,5.70
2022-11-07T08:00:04.237Z,6.28
2022-11-07T08:05:04.306Z,7.85
2022-11-07T08:10:02.013Z,8.15
2022-11-07T08:14:56.389Z,7.53
2022-11-07T08:19:50.168Z,8.40
2022-11-07T08:24:44.374Z,8.63
2022-11-07T08:29:38.339Z,8.88
2022-11-07T08:34:32.528Z,9.73
2022-11-07T08:39:30.362Z,8.57
2022-11-07T08:44:24.069Z,9.40
2022-11-07T08:49:17.371Z,9.85
2022-11-07T08:54:12.582Z,10.02
2022-11-07T08:59:06.334Z,11.25
2022-11-07T09:04:01.561Z,9.18
2022-11-07T09:08:55.999Z,10.65
2022-11-07T09:13:50.124Z,11.35
2022-11-07T09:18:45.484Z,10.93
2022-11-07T09:23:38.910Z,9.98
2022-11-07T09:28:33.386Z,10.05
2022-11-07T09:33:27.191Z,10.50
2022-11-07T09:38:21.026Z,10.80
2022-11-07T09:43:42.370Z,10.18
2022-11-07T09:48:50.305Z,10.05
2022-11-07T09:54:07.713Z,10.63
2022-11-07T09:59:11.126Z,10.10
2022-11-07T10:09:34.846Z,10.43
2022-11-07T10:14:33.486Z,9.23
2022-11-07T10:20:01.031Z,10.45
2022-11-07T10:25:01.088Z,10.65
2022-11-07T10:29:55.296Z,10.98
2022-11-07T10:34:54.794Z,9.90
2022-11-07T10:39:49.151Z,10.00
2022-11-07T10:44:43.456Z,11.10
2022-11-07T10:49:37.926Z,11.23
2022-11-07T10:54:32.902Z,11.32
2022-11-07T10:59:34.660Z,11.70
2022-11-07T11:04:31.821Z,11.88
2022-11-07T11:09:34.677Z,10.13
2022-11-07T11:14:27.786Z,11.73
2022-11-07T11:19:25.313Z,12.10
2022-11-07T11:24:24.430Z,13.18
2022-11-07T11:29:51.978Z,11.48
2022-11-07T11:34:55.796Z,12.65
2022-11-07T11:39:51.971Z,14.55
2022-11-07T11:44:45.868Z,12.85
2022-11-07T11:49:51.323Z,14.05
2022-11-07T11:54:45.455Z,14.80
2022-11-07T11:59:57.506Z,14.27
2022-11-07T12:05:05.410Z,12.82
2022-11-07T12:10:03.826Z,13.15
2022-11-07T12:15:35.018Z,14.88
2022-11-07T12:20:29.342Z,13.90
2022-11-07T12:25:44.798Z,13.73
2022-11-07T12:30:43.714Z,13.38
2022-11-07T12:35:39.586Z,15.68
2022-11-07T12:41:09.374Z,15.52
2022-11-07T12:46:32.054Z,15.23
2022-11-07T12:51:43.593Z,16.40
2022-11-07T12:56:38.160Z,17.85
2022-11-07T13:02:02.213Z,16.92
2022-11-07T13:07:33.252Z,15.38
2022-11-07T13:13:03.508Z,14.60
2022-11-07T13:17:56.808Z,14.27
2022-11-07T13:22:51.374Z,16.08
2022-11-07T13:27:47.551Z,14.40
2022-11-07T13:32:49.326Z,16.67
2022-11-07T13:37:48.458Z,13.50
2022-11-07T13:42:43.398Z,15.63
2022-11-07T13:47:40.542Z,13.85
2022-11-07T13:52:41.046Z,14.95
2022-11-07T13:57:41.919Z,15.25
2022-11-07T14:02:36.149Z,13.43
2022-11-07T14:07:37.768Z,12.50
2022-11-07T14:12:31.296Z,13.27
2022-11-07T14:17:29.248Z,13.80
2022-11-07T14:22:26.344Z,13.00
2022-11-07T14:27:22.476Z,13.77
2022-11-07T14:32:17.156Z,14.15
2022-11-07T14:37:16.142Z,13.80
2022-11-07T14:42:11.436Z,14.13
2022-11-07T14:47:05.115Z,16.17
2022-11-07T14:51:59.563Z,14.95
2022-11-07T14:56:56.583Z,13.93
2022-11-07T15:02:24.270Z,13.05
2022-11-07T15:07:30.687Z,13.95
2022-11-07T15:12:28.982Z,12.75
2022-11-07T15:17:25.610Z,13.68
2022-11-07T15:22:52.897Z,16.60
2022-11-07T15:27:47.202Z,16.25
2022-11-07T15:32:43.905Z,17.85
2022-11-07T15:37:37.791Z,17.58
2022-11-07T15:42:33.192Z,18.63
2022-11-07T15:47:26.944Z,16.85
2022-11-07T15:52:20.428Z,16.17
2022-11-07T15:57:14.169Z,16.17
2022-11-07T16:02:15.976Z,15.88
2022-11-07T16:07:16.655Z,15.95
2022-11-07T16:12:13.343Z,17.67
2022-11-07T16:17:05.402Z,16.77
2022-11-07T16:21:57.609Z,27.50
2022-11-07T16:26:52.196Z,19.63
2022-11-07T16:31:46.328Z,17.50
2022-11-07T16:36:40.773Z,19.50
2022-11-07T16:41:35.231Z,23.52
2022-11-07T16:46:29.964Z,21.77
2022-11-07T16:51:24.099Z,19.55
2022-11-07T16:56:29.852Z,18.75
2022-11-07T17:01:24.383Z,16.63
2022-11-07T17:06:32.615Z,62.97
2022-11-07T17:11:25.887Z,24.17
2022-11-07T17:16:24.381Z,18.85
2022-11-07T17:21:23.139Z,19.77
2022-11-07T17:26:20.543Z,23.27
2022-11-07T17:31:14.868Z,24.95
2022-11-07T17:36:35.239Z,24.23
2022-11-07T17:41:30.404Z,23.48
2022-11-07T17:46:27.003Z,24.58
2022-11-07T17:51:21.201Z,24.25
2022-11-07T17:56:19.385Z,23.23
2022-11-07T18:01:22.334Z,24.37
2022-11-07T18:06:15.490Z,24.05
2022-11-07T18:11:09.761Z,26.75
2022-11-07T18:16:11.723Z,23.70
2022-11-07T18:21:05.222Z,23.70
2022-11-07T18:26:12.411Z,26.77
2022-11-07T18:31:14.439Z,29.10
2022-11-07T18:36:10.912Z,30.27
2022-11-07T18:41:05.154Z,29.23
2022-11-07T18:45:58.494Z,27.10
2022-11-07T18:50:51.389Z,27.58
2022-11-07T18:55:45.187Z,27.95
2022-11-07T19:00:39.534Z,27.27
2022-11-07T19:05:35.028Z,26.55
2022-11-07T19:10:31.578Z,24.07
2022-11-07T19:15:29.249Z,22.45
2022-11-07T19:20:23.019Z,26.38
2022-11-07T19:25:19.703Z,28.90
2022-11-07T19:30:16.026Z,35.72
2022-11-07T19:35:10.476Z,36.75
2022-11-07T19:40:05.602Z,44.72
2022-11-07T19:44:58.737Z,44.63
2022-11-07T19:49:53.023Z,39.75
2022-11-07T19:54:48.035Z,36.03
2022-11-07T19:59:42.015Z,33.78
2022-11-07T20:04:35.488Z,31.73
2022-11-07T20:09:29.507Z,29.52
2022-11-07T20:14:22.551Z,26.95
2022-11-07T20:19:16.064Z,28.05
2022-11-07T20:24:10.176Z,28.63
2022-11-07T20:29:04.959Z,32.83
2022-11-07T20:34:01.819Z,28.85
2022-11-07T20:38:56.835Z,29.48
2022-11-07T20:43:55.039Z,28.98
2022-11-07T20:48:48.454Z,32.20
2022-11-07T20:53:46.762Z,31.27
2022-11-07T20:58:43.811Z,26.98
2022-11-07T21:03:37.791Z,26.38
2022-11-07T21:08:36.122Z,27.35
2022-11-07T21:13:31.264Z,27.25
2022-11-07T21:18:25.537Z,27.83
2022-11-07T21:23:19.478Z,27.52
2022-11-07T21:28:17.898Z,29.95
2022-11-07T21:33:10.601Z,32.40
2022-11-07T21:38:04.836Z,29.73
2022-11-07T21:42:58.392Z,23.08
2022-11-07T21:47:52.076Z,20.50
2022-11-07T21:52:46.326Z,22.55
2022-11-07T21:57:40.023Z,21.75
2022-11-07T22:02:33.650Z,19.90
2022-11-07T22:07:27.586Z,21.92
2022-11-07T22:12:21.910Z,21.17
2022-11-07T22:17:15.838Z,18.98
2022-11-07T22:22:09.995Z,21.75
2022-11-07T22:27:04.511Z,19.67
2022-11-07T22:31:59.738Z,20.30
2022-11-07T22:36:54.974Z,20.27
2022-11-07T22:41:48.578Z,20.27
2022-11-07T22:46:42.142Z,18.85
2022-11-07T22:51:36.658Z,18.17
2022-11-07T22:56:30.884Z,16.73
2022-11-07T23:01:26.189Z,20.95
2022-11-07T23:06:19.911Z,20.70
2022-11-07T23:11:45.291Z,19.27
2022-11-07T23:16:33.689Z,19.45
2022-11-07T23:21:27.043Z,19.13
2022-11-07T23:26:19.755Z,18.38
2022-11-07T23:31:14.051Z,17.40
2022-11-07T23:36:17.124Z,17.33
2022-11-07T23:41:13.309Z,17.70
2022-11-07T23:46:25.606Z,17.15
2022-11-07T23:51:19.106Z,17.50
2022-11-07T23:56:12.567Z,18.75
